sensor_id;sensor_type;location;lat;lon;timestamp;P1;durP1;ratioP1;P2;durP2;ratioP2
76437;SDS011;65273;43.198;0.118;2023-03-23T00:02:19;8.77;;;3.95;;
76437;SDS011;65273;43.198;0.118;2023-03-23T00:04:48;8.05;;;3.38;;
76437;SDS011;65273;43.198;0.118;2023-03-23T00:07:14;5.93;;;3.30;;
76437;SDS011;65273;43.198;0.118;2023-03-23T00:09:45;7.15;;;3.47;;
76437;SDS011;65273;43.198;0.118;2023-03-23T00:12:12;7.20;;;3.38;;
76437;SDS011;65273;43.198;0.118;2023-03-23T00:14:40;6.30;;;3.13;;
76437;SDS011;65273;43.198;0.118;2023-03-23T00:17:09;5.40;;;2.38;;
76437;SDS011;65273;43.198;0.118;2023-03-23T00:19:38;3.10;;;2.17;;
76437;SDS011;65273;43.198;0.118;2023-03-23T00:22:13;3.30;;;2.13;;
76437;SDS011;65273;43.198;0.118;2023-03-23T00:24:39;5.53;;;2.17;;
76437;SDS011;65273;43.198;0.118;2023-03-23T00:27:05;11.25;;;3.35;;
76437;SDS011;65273;43.198;0.118;2023-03-23T00:29:31;6.35;;;3.55;;
76437;SDS011;65273;43.198;0.118;2023-03-23T00:31:57;4.18;;;2.80;;
76437;SDS011;65273;43.198;0.118;2023-03-23T00:34:23;6.13;;;3.35;;
76437;SDS011;65273;43.198;0.118;2023-03-23T00:36:50;4.03;;;2.60;;
76437;SDS011;65273;43.198;0.118;2023-03-23T00:39:18;5.88;;;2.95;;
76437;SDS011;65273;43.198;0.118;2023-03-23T00:41:44;5.60;;;2.60;;
76437;SDS011;65273;43.198;0.118;2023-03-23T00:44:11;6.53;;;2.80;;
76437;SDS011;65273;43.198;0.118;2023-03-23T00:46:42;4.70;;;2.17;;
76437;SDS011;65273;43.198;0.118;2023-03-23T00:49:10;5.22;;;2.45;;
76437;SDS011;65273;43.198;0.118;2023-03-23T00:51:37;6.25;;;2.40;;
76437;SDS011;65273;43.198;0.118;2023-03-23T00:54:03;4.63;;;2.03;;
76437;SDS011;65273;43.198;0.118;2023-03-23T00:56:29;3.15;;;1.80;;
76437;SDS011;65273;43.198;0.118;2023-03-23T00:58:54;2.72;;;2.00;;
76437;SDS011;65273;43.198;0.118;2023-03-23T01:01:20;4.60;;;2.10;;
76437;SDS011;65273;43.198;0.118;2023-03-23T01:03:45;5.05;;;2.60;;
76437;SDS011;65273;43.198;0.118;2023-03-23T01:06:11;2.63;;;2.13;;
76437;SDS011;65273;43.198;0.118;2023-03-23T01:08:40;3.03;;;2.40;;
76437;SDS011;65273;43.198;0.118;2023-03-23T01:11:10;3.30;;;2.47;;
76437;SDS011;65273;43.198;0.118;2023-03-23T01:13:41;2.85;;;2.15;;
76437;SDS011;65273;43.198;0.118;2023-03-23T01:16:08;3.50;;;2.17;;
76437;SDS011;65273;43.198;0.118;2023-03-23T01:18:34;2.50;;;1.85;;
76437;SDS011;65273;43.198;0.118;2023-03-23T01:21:06;2.85;;;1.85;;
76437;SDS011;65273;43.198;0.118;2023-03-23T01:23:33;1.98;;;1.73;;
76437;SDS011;65273;43.198;0.118;2023-03-23T01:26:18;2.15;;;1.80;;
76437;SDS011;65273;43.198;0.118;2023-03-23T01:28:45;4.45;;;1.98;;
76437;SDS011;65273;43.198;0.118;2023-03-23T01:31:18;3.95;;;1.90;;
76437;SDS011;65273;43.198;0.118;2023-03-23T01:33:45;2.53;;;1.90;;
76437;SDS011;65273;43.198;0.118;2023-03-23T01:36:12;3.38;;;1.75;;
76437;SDS011;65273;43.198;0.118;2023-03-23T01:38:42;2.33;;;1.77;;
76437;SDS011;65273;43.198;0.118;2023-03-23T01:41:09;2.42;;;1.90;;
76437;SDS011;65273;43.198;0.118;2023-03-23T01:43:35;2.60;;;2.00;;
76437;SDS011;65273;43.198;0.118;2023-03-23T01:46:01;2.97;;;1.70;;
76437;SDS011;65273;43.198;0.118;2023-03-23T01:48:31;6.75;;;1.70;;
76437;SDS011;65273;43.198;0.118;2023-03-23T01:51:08;2.30;;;1.80;;
76437;SDS011;65273;43.198;0.118;2023-03-23T01:53:54;2.05;;;1.60;;
76437;SDS011;65273;43.198;0.118;2023-03-23T01:56:24;2.22;;;1.48;;
76437;SDS011;65273;43.198;0.118;2023-03-23T01:58:54;1.52;;;1.38;;
76437;SDS011;65273;43.198;0.118;2023-03-23T02:01:21;3.83;;;1.45;;
76437;SDS011;65273;43.198;0.118;2023-03-23T02:03:47;1.80;;;1.55;;
76437;SDS011;65273;43.198;0.118;2023-03-23T02:06:13;2.78;;;1.50;;
76437;SDS011;65273;43.198;0.118;2023-03-23T02:08:40;2.10;;;1.42;;
76437;SDS011;65273;43.198;0.118;2023-03-23T02:11:11;2.40;;;1.23;;
76437;SDS011;65273;43.198;0.118;2023-03-23T02:13:39;2.25;;;1.40;;
76437;SDS011;65273;43.198;0.118;2023-03-23T02:36:38;3.30;;;1.50;;
76437;SDS011;65273;43.198;0.118;2023-03-23T02:41:44;3.42;;;1.55;;
76437;SDS011;65273;43.198;0.118;2023-03-23T02:44:12;2.70;;;1.15;;
76437;SDS011;65273;43.198;0.118;2023-03-23T02:46:39;2.78;;;1.20;;
76437;SDS011;65273;43.198;0.118;2023-03-23T02:49:05;1.48;;;1.38;;
76437;SDS011;65273;43.198;0.118;2023-03-23T02:51:32;1.67;;;1.35;;
76437;SDS011;65273;43.198;0.118;2023-03-23T02:53:59;3.08;;;1.23;;
76437;SDS011;65273;43.198;0.118;2023-03-23T02:56:25;2.50;;;1.50;;
76437;SDS011;65273;43.198;0.118;2023-03-23T02:58:51;2.15;;;1.35;;
76437;SDS011;65273;43.198;0.118;2023-03-23T03:03:52;1.85;;;1.40;;
76437;SDS011;65273;43.198;0.118;2023-03-23T03:09:09;1.40;;;1.30;;
76437;SDS011;65273;43.198;0.118;2023-03-23T03:11:50;2.20;;;1.20;;
76437;SDS011;65273;43.198;0.118;2023-03-23T03:14:19;1.50;;;1.15;;
76437;SDS011;65273;43.198;0.118;2023-03-23T03:16:53;1.27;;;1.15;;
76437;SDS011;65273;43.198;0.118;2023-03-23T03:19:27;2.25;;;1.20;;
76437;SDS011;65273;43.198;0.118;2023-03-23T03:21:56;1.90;;;1.15;;
76437;SDS011;65273;43.198;0.118;2023-03-23T03:24:23;4.40;;;1.30;;
76437;SDS011;65273;43.198;0.118;2023-03-23T03:26:51;1.17;;;1.00;;
76437;SDS011;65273;43.198;0.118;2023-03-23T03:29:20;1.77;;;1.13;;
76437;SDS011;65273;43.198;0.118;2023-03-23T03:31:48;1.38;;;0.90;;
76437;SDS011;65273;43.198;0.118;2023-03-23T03:34:14;1.67;;;1.17;;
76437;SDS011;65273;43.198;0.118;2023-03-23T03:36:43;2.50;;;1.25;;
76437;SDS011;65273;43.198;0.118;2023-03-23T03:39:10;2.10;;;1.17;;
76437;SDS011;65273;43.198;0.118;2023-03-23T03:41:37;1.60;;;1.08;;
76437;SDS011;65273;43.198;0.118;2023-03-23T03:44:03;1.55;;;1.27;;
76437;SDS011;65273;43.198;0.118;2023-03-23T03:46:30;1.85;;;1.20;;
76437;SDS011;65273;43.198;0.118;2023-03-23T03:48:56;1.67;;;1.30;;
76437;SDS011;65273;43.198;0.118;2023-03-23T03:51:23;1.90;;;1.15;;
76437;SDS011;65273;43.198;0.118;2023-03-23T03:53:50;2.25;;;1.05;;
76437;SDS011;65273;43.198;0.118;2023-03-23T03:56:15;2.35;;;1.25;;
76437;SDS011;65273;43.198;0.118;2023-03-23T03:58:41;1.25;;;1.10;;
76437;SDS011;65273;43.198;0.118;2023-03-23T04:01:07;1.75;;;1.00;;
76437;SDS011;65273;43.198;0.118;2023-03-23T04:03:35;2.95;;;1.08;;
76437;SDS011;65273;43.198;0.118;2023-03-23T04:06:01;1.88;;;1.10;;
76437;SDS011;65273;43.198;0.118;2023-03-23T04:08:27;1.30;;;1.20;;
76437;SDS011;65273;43.198;0.118;2023-03-23T04:10:53;1.35;;;1.10;;
76437;SDS011;65273;43.198;0.118;2023-03-23T04:13:19;2.30;;;1.10;;
76437;SDS011;65273;43.198;0.118;2023-03-23T04:15:45;2.58;;;1.20;;
76437;SDS011;65273;43.198;0.118;2023-03-23T04:18:11;2.60;;;1.15;;
76437;SDS011;65273;43.198;0.118;2023-03-23T04:20:37;1.30;;;0.90;;
76437;SDS011;65273;43.198;0.118;2023-03-23T04:23:03;1.20;;;1.10;;
76437;SDS011;65273;43.198;0.118;2023-03-23T04:25:28;1.80;;;1.13;;
76437;SDS011;65273;43.198;0.118;2023-03-23T04:27:57;1.40;;;1.20;;
76437;SDS011;65273;43.198;0.118;2023-03-23T04:30:26;4.03;;;1.25;;
76437;SDS011;65273;43.198;0.118;2023-03-23T04:32:52;2.55;;;1.10;;
76437;SDS011;65273;43.198;0.118;2023-03-23T04:35:21;1.75;;;1.20;;
76437;SDS011;65273;43.198;0.118;2023-03-23T04:37:47;1.33;;;1.10;;
76437;SDS011;65273;43.198;0.118;2023-03-23T04:40:14;2.17;;;1.20;;
76437;SDS011;65273;43.198;0.118;2023-03-23T04:42:43;2.50;;;1.20;;
76437;SDS011;65273;43.198;0.118;2023-03-23T04:45:13;2.08;;;1.10;;
76437;SDS011;65273;43.198;0.118;2023-03-23T04:47:40;3.95;;;1.73;;
76437;SDS011;65273;43.198;0.118;2023-03-23T04:52:33;2.55;;;1.70;;
76437;SDS011;65273;43.198;0.118;2023-03-23T04:54:59;2.72;;;1.50;;
76437;SDS011;65273;43.198;0.118;2023-03-23T04:57:25;1.88;;;1.50;;
76437;SDS011;65273;43.198;0.118;2023-03-23T04:59:53;4.90;;;1.90;;
76437;SDS011;65273;43.198;0.118;2023-03-23T05:02:19;1.90;;;1.70;;
76437;SDS011;65273;43.198;0.118;2023-03-23T05:04:44;2.33;;;1.30;;
76437;SDS011;65273;43.198;0.118;2023-03-23T05:07:10;1.23;;;1.10;;
76437;SDS011;65273;43.198;0.118;2023-03-23T05:09:36;3.00;;;1.38;;
76437;SDS011;65273;43.198;0.118;2023-03-23T05:12:05;1.42;;;1.33;;
76437;SDS011;65273;43.198;0.118;2023-03-23T05:14:31;1.27;;;1.17;;
76437;SDS011;65273;43.198;0.118;2023-03-23T05:16:57;2.03;;;1.25;;
76437;SDS011;65273;43.198;0.118;2023-03-23T05:19:22;1.65;;;1.50;;
76437;SDS011;65273;43.198;0.118;2023-03-23T05:21:48;8.35;;;3.50;;
76437;SDS011;65273;43.198;0.118;2023-03-23T05:24:13;3.25;;;2.30;;
76437;SDS011;65273;43.198;0.118;2023-03-23T05:26:39;3.08;;;2.20;;
76437;SDS011;65273;43.198;0.118;2023-03-23T05:29:04;2.90;;;2.20;;
76437;SDS011;65273;43.198;0.118;2023-03-23T05:31:30;4.47;;;3.08;;
76437;SDS011;65273;43.198;0.118;2023-03-23T05:33:55;4.10;;;3.05;;
76437;SDS011;65273;43.198;0.118;2023-03-23T05:36:21;5.03;;;2.67;;
76437;SDS011;65273;43.198;0.118;2023-03-23T05:38:48;3.80;;;1.98;;
76437;SDS011;65273;43.198;0.118;2023-03-23T05:41:14;2.80;;;2.15;;
76437;SDS011;65273;43.198;0.118;2023-03-23T05:43:40;2.47;;;1.70;;
76437;SDS011;65273;43.198;0.118;2023-03-23T05:46:06;1.00;;;1.00;;
76437;SDS011;65273;43.198;0.118;2023-03-23T05:48:32;4.22;;;1.35;;
76437;SDS011;65273;43.198;0.118;2023-03-23T05:50:58;3.15;;;2.00;;
76437;SDS011;65273;43.198;0.118;2023-03-23T05:53:23;3.03;;;2.05;;
76437;SDS011;65273;43.198;0.118;2023-03-23T05:55:49;2.38;;;1.90;;
76437;SDS011;65273;43.198;0.118;2023-03-23T05:58:15;3.28;;;1.90;;
76437;SDS011;65273;43.198;0.118;2023-03-23T06:00:40;4.45;;;1.95;;
76437;SDS011;65273;43.198;0.118;2023-03-23T06:03:06;2.08;;;1.77;;
76437;SDS011;65273;43.198;0.118;2023-03-23T06:05:32;2.78;;;1.30;;
76437;SDS011;65273;43.198;0.118;2023-03-23T06:07:57;1.35;;;1.17;;
76437;SDS011;65273;43.198;0.118;2023-03-23T06:10:24;1.27;;;1.17;;
76437;SDS011;65273;43.198;0.118;2023-03-23T06:12:50;3.30;;;1.40;;
76437;SDS011;65273;43.198;0.118;2023-03-23T06:15:16;2.45;;;1.30;;
76437;SDS011;65273;43.198;0.118;2023-03-23T06:17:42;1.77;;;1.25;;
76437;SDS011;65273;43.198;0.118;2023-03-23T06:20:08;2.17;;;1.40;;
76437;SDS011;65273;43.198;0.118;2023-03-23T06:22:35;2.03;;;1.30;;
76437;SDS011;65273;43.198;0.118;2023-03-23T06:25:07;2.22;;;1.20;;
76437;SDS011;65273;43.198;0.118;2023-03-23T06:27:34;2.08;;;1.77;;
76437;SDS011;65273;43.198;0.118;2023-03-23T06:30:00;3.03;;;1.80;;
76437;SDS011;65273;43.198;0.118;2023-03-23T06:32:27;4.95;;;1.98;;
76437;SDS011;65273;43.198;0.118;2023-03-23T06:34:53;2.42;;;1.77;;
76437;SDS011;65273;43.198;0.118;2023-03-23T06:37:19;2.58;;;1.58;;
76437;SDS011;65273;43.198;0.118;2023-03-23T06:39:45;2.40;;;1.90;;
76437;SDS011;65273;43.198;0.118;2023-03-23T06:42:11;3.60;;;2.53;;
76437;SDS011;65273;43.198;0.118;2023-03-23T06:44:37;4.97;;;2.53;;
76437;SDS011;65273;43.198;0.118;2023-03-23T06:47:03;1.90;;;1.80;;
76437;SDS011;65273;43.198;0.118;2023-03-23T06:49:29;7.75;;;2.10;;
76437;SDS011;65273;43.198;0.118;2023-03-23T06:51:54;11.30;;;2.08;;
76437;SDS011;65273;43.198;0.118;2023-03-23T06:54:21;5.03;;;1.70;;
76437;SDS011;65273;43.198;0.118;2023-03-23T06:56:47;4.97;;;2.05;;
76437;SDS011;65273;43.198;0.118;2023-03-23T06:59:12;4.18;;;1.98;;
76437;SDS011;65273;43.198;0.118;2023-03-23T07:01:38;2.70;;;2.03;;
76437;SDS011;65273;43.198;0.118;2023-03-23T07:04:04;3.95;;;1.90;;
76437;SDS011;65273;43.198;0.118;2023-03-23T07:06:30;2.33;;;1.70;;
76437;SDS011;65273;43.198;0.118;2023-03-23T07:08:55;4.63;;;2.00;;
76437;SDS011;65273;43.198;0.118;2023-03-23T07:11:21;3.92;;;1.70;;
76437;SDS011;65273;43.198;0.118;2023-03-23T07:13:46;4.57;;;1.70;;
76437;SDS011;65273;43.198;0.118;2023-03-23T07:16:11;4.00;;;1.88;;
76437;SDS011;65273;43.198;0.118;2023-03-23T07:18:37;7.60;;;2.70;;
76437;SDS011;65273;43.198;0.118;2023-03-23T07:21:02;5.57;;;2.30;;
76437;SDS011;65273;43.198;0.118;2023-03-23T07:23:28;6.63;;;2.40;;
76437;SDS011;65273;43.198;0.118;2023-03-23T07:25:54;3.70;;;2.15;;
76437;SDS011;65273;43.198;0.118;2023-03-23T07:28:19;4.03;;;1.92;;
76437;SDS011;65273;43.198;0.118;2023-03-23T07:30:45;4.20;;;2.45;;
76437;SDS011;65273;43.198;0.118;2023-03-23T07:33:10;3.70;;;2.08;;
76437;SDS011;65273;43.198;0.118;2023-03-23T07:35:36;3.65;;;1.50;;
76437;SDS011;65273;43.198;0.118;2023-03-23T07:38:03;4.47;;;1.40;;
76437;SDS011;65273;43.198;0.118;2023-03-23T07:40:29;4.93;;;1.60;;
76437;SDS011;65273;43.198;0.118;2023-03-23T07:42:58;2.83;;;1.52;;
76437;SDS011;65273;43.198;0.118;2023-03-23T07:45:24;2.83;;;1.60;;
76437;SDS011;65273;43.198;0.118;2023-03-23T07:47:49;4.80;;;1.77;;
76437;SDS011;65273;43.198;0.118;2023-03-23T07:50:16;5.03;;;1.58;;
76437;SDS011;65273;43.198;0.118;2023-03-23T07:52:42;2.33;;;1.67;;
76437;SDS011;65273;43.198;0.118;2023-03-23T07:55:08;3.83;;;1.50;;
76437;SDS011;65273;43.198;0.118;2023-03-23T07:57:34;3.80;;;1.48;;
76437;SDS011;65273;43.198;0.118;2023-03-23T07:59:59;4.70;;;1.73;;
76437;SDS011;65273;43.198;0.118;2023-03-23T08:02:25;3.17;;;1.52;;
76437;SDS011;65273;43.198;0.118;2023-03-23T08:04:51;5.55;;;1.90;;
76437;SDS011;65273;43.198;0.118;2023-03-23T08:07:18;2.65;;;1.40;;
76437;SDS011;65273;43.198;0.118;2023-03-23T08:09:44;2.95;;;1.40;;
76437;SDS011;65273;43.198;0.118;2023-03-23T08:12:09;6.75;;;1.42;;
76437;SDS011;65273;43.198;0.118;2023-03-23T08:14:35;2.58;;;1.30;;
76437;SDS011;65273;43.198;0.118;2023-03-23T08:17:00;6.65;;;1.60;;
76437;SDS011;65273;43.198;0.118;2023-03-23T08:19:25;2.63;;;1.30;;
76437;SDS011;65273;43.198;0.118;2023-03-23T08:21:51;6.93;;;1.50;;
76437;SDS011;65273;43.198;0.118;2023-03-23T08:24:17;2.50;;;1.35;;
76437;SDS011;65273;43.198;0.118;2023-03-23T08:26:42;3.08;;;1.40;;
76437;SDS011;65273;43.198;0.118;2023-03-23T08:29:07;2.00;;;1.38;;
76437;SDS011;65273;43.198;0.118;2023-03-23T08:31:33;2.05;;;1.38;;
76437;SDS011;65273;43.198;0.118;2023-03-23T08:34:03;2.55;;;1.23;;
76437;SDS011;65273;43.198;0.118;2023-03-23T08:36:30;4.68;;;1.40;;
76437;SDS011;65273;43.198;0.118;2023-03-23T08:38:55;1.17;;;1.08;;
76437;SDS011;65273;43.198;0.118;2023-03-23T08:41:20;1.40;;;1.10;;
76437;SDS011;65273;43.198;0.118;2023-03-23T08:43:46;4.05;;;1.42;;
76437;SDS011;65273;43.198;0.118;2023-03-23T08:46:11;1.65;;;1.40;;
76437;SDS011;65273;43.198;0.118;2023-03-23T08:48:37;3.28;;;1.50;;
76437;SDS011;65273;43.198;0.118;2023-03-23T08:51:04;1.40;;;1.30;;
76437;SDS011;65273;43.198;0.118;2023-03-23T08:53:29;2.63;;;1.40;;
76437;SDS011;65273;43.198;0.118;2023-03-23T08:55:56;2.83;;;1.20;;
76437;SDS011;65273;43.198;0.118;2023-03-23T08:58:21;2.38;;;1.48;;
76437;SDS011;65273;43.198;0.118;2023-03-23T09:00:47;11.98;;;1.77;;
76437;SDS011;65273;43.198;0.118;2023-03-23T09:03:13;4.32;;;1.45;;
76437;SDS011;65273;43.198;0.118;2023-03-23T09:05:38;1.63;;;1.38;;
76437;SDS011;65273;43.198;0.118;2023-03-23T09:08:08;3.58;;;1.67;;
76437;SDS011;65273;43.198;0.118;2023-03-23T09:10:33;1.27;;;1.20;;
76437;SDS011;65273;43.198;0.118;2023-03-23T09:12:58;2.05;;;1.25;;
76437;SDS011;65273;43.198;0.118;2023-03-23T09:15:24;4.18;;;1.35;;
76437;SDS011;65273;43.198;0.118;2023-03-23T09:17:53;4.53;;;1.55;;
76437;SDS011;65273;43.198;0.118;2023-03-23T09:20:20;1.42;;;1.20;;
76437;SDS011;65273;43.198;0.118;2023-03-23T09:22:47;1.48;;;1.27;;
76437;SDS011;65273;43.198;0.118;2023-03-23T09:25:13;1.65;;;1.20;;
76437;SDS011;65273;43.198;0.118;2023-03-23T09:27:40;2.10;;;1.20;;
76437;SDS011;65273;43.198;0.118;2023-03-23T09:30:11;2.08;;;1.52;;
76437;SDS011;65273;43.198;0.118;2023-03-23T09:32:38;2.45;;;1.30;;
76437;SDS011;65273;43.198;0.118;2023-03-23T09:35:05;2.13;;;1.17;;
76437;SDS011;65273;43.198;0.118;2023-03-23T09:37:33;1.70;;;1.20;;
76437;SDS011;65273;43.198;0.118;2023-03-23T09:40:01;1.65;;;1.20;;
76437;SDS011;65273;43.198;0.118;2023-03-23T09:54:25;3.90;;;1.30;;
76437;SDS011;65273;43.198;0.118;2023-03-23T09:56:52;2.20;;;1.00;;
76437;SDS011;65273;43.198;0.118;2023-03-23T09:59:27;7.05;;;3.75;;
76437;SDS011;65273;43.198;0.118;2023-03-23T10:01:57;2.30;;;1.55;;
76437;SDS011;65273;43.198;0.118;2023-03-23T10:04:40;2.22;;;1.40;;
76437;SDS011;65273;43.198;0.118;2023-03-23T10:07:21;2.08;;;1.45;;
76437;SDS011;65273;43.198;0.118;2023-03-23T10:09:50;2.53;;;1.40;;
76437;SDS011;65273;43.198;0.118;2023-03-23T10:12:29;2.35;;;1.50;;
76437;SDS011;65273;43.198;0.118;2023-03-23T10:25:59;3.20;;;1.35;;
76437;SDS011;65273;43.198;0.118;2023-03-23T10:28:42;2.22;;;1.30;;
76437;SDS011;65273;43.198;0.118;2023-03-23T10:31:17;2.95;;;1.30;;
76437;SDS011;65273;43.198;0.118;2023-03-23T10:33:47;1.15;;;0.93;;
76437;SDS011;65273;43.198;0.118;2023-03-23T10:36:34;2.55;;;1.30;;
76437;SDS011;65273;43.198;0.118;2023-03-23T10:39:19;1.95;;;1.25;;
76437;SDS011;65273;43.198;0.118;2023-03-23T10:41:46;2.22;;;1.33;;
76437;SDS011;65273;43.198;0.118;2023-03-23T10:44:22;2.00;;;1.20;;
76437;SDS011;65273;43.198;0.118;2023-03-23T10:49:35;4.93;;;1.20;;
76437;SDS011;65273;43.198;0.118;2023-03-23T10:52:05;2.72;;;1.20;;
76437;SDS011;65273;43.198;0.118;2023-03-23T10:54:37;1.80;;;1.10;;
76437;SDS011;65273;43.198;0.118;2023-03-23T10:57:12;3.42;;;1.25;;
76437;SDS011;65273;43.198;0.118;2023-03-23T10:59:45;2.55;;;1.33;;
76437;SDS011;65273;43.198;0.118;2023-03-23T11:02:15;2.03;;;1.40;;
76437;SDS011;65273;43.198;0.118;2023-03-23T11:04:46;1.80;;;1.20;;
76437;SDS011;65273;43.198;0.118;2023-03-23T11:07:20;2.03;;;1.38;;
76437;SDS011;65273;43.198;0.118;2023-03-23T11:09:53;1.98;;;1.30;;
76437;SDS011;65273;43.198;0.118;2023-03-23T11:12:20;2.17;;;1.25;;
76437;SDS011;65273;43.198;0.118;2023-03-23T11:14:47;4.07;;;1.35;;
76437;SDS011;65273;43.198;0.118;2023-03-23T11:17:24;3.58;;;1.45;;
76437;SDS011;65273;43.198;0.118;2023-03-23T11:19:51;8.35;;;1.30;;
76437;SDS011;65273;43.198;0.118;2023-03-23T11:24:55;1.63;;;1.40;;
76437;SDS011;65273;43.198;0.118;2023-03-23T11:27:25;2.22;;;1.50;;
76437;SDS011;65273;43.198;0.118;2023-03-23T11:30:11;2.35;;;1.30;;
76437;SDS011;65273;43.198;0.118;2023-03-23T11:32:52;4.03;;;1.45;;
76437;SDS011;65273;43.198;0.118;2023-03-23T11:35:23;2.00;;;1.27;;
76437;SDS011;65273;43.198;0.118;2023-03-23T11:37:56;2.10;;;1.20;;
76437;SDS011;65273;43.198;0.118;2023-03-23T11:40:31;4.93;;;1.38;;
76437;SDS011;65273;43.198;0.118;2023-03-23T11:45:38;1.45;;;1.15;;
76437;SDS011;65273;43.198;0.118;2023-03-23T11:48:11;6.15;;;1.55;;
76437;SDS011;65273;43.198;0.118;2023-03-23T11:51:03;6.78;;;1.50;;
76437;SDS011;65273;43.198;0.118;2023-03-23T11:53:50;3.20;;;1.42;;
76437;SDS011;65273;43.198;0.118;2023-03-23T11:56:33;2.45;;;1.42;;
76437;SDS011;65273;43.198;0.118;2023-03-23T11:59:00;3.63;;;1.42;;
76437;SDS011;65273;43.198;0.118;2023-03-23T12:04:32;1.90;;;1.65;;
76437;SDS011;65273;43.198;0.118;2023-03-23T12:13:31;3.72;;;1.10;;
76437;SDS011;65273;43.198;0.118;2023-03-23T12:16:24;3.22;;;1.40;;
76437;SDS011;65273;43.198;0.118;2023-03-23T12:35:18;3.28;;;1.30;;
76437;SDS011;65273;43.198;0.118;2023-03-23T12:38:12;1.63;;;1.33;;
76437;SDS011;65273;43.198;0.118;2023-03-23T12:48:52;2.90;;;1.40;;
76437;SDS011;65273;43.198;0.118;2023-03-23T12:55:05;2.72;;;1.75;;
76437;SDS011;65273;43.198;0.118;2023-03-23T12:57:41;3.25;;;1.90;;
76437;SDS011;65273;43.198;0.118;2023-03-23T13:05:35;4.90;;;2.20;;
76437;SDS011;65273;43.198;0.118;2023-03-23T13:08:18;3.75;;;1.80;;
76437;SDS011;65273;43.198;0.118;2023-03-23T13:10:50;2.33;;;1.77;;
76437;SDS011;65273;43.198;0.118;2023-03-23T13:13:21;3.00;;;1.73;;
76437;SDS011;65273;43.198;0.118;2023-03-23T13:15:51;4.93;;;2.00;;
76437;SDS011;65273;43.198;0.118;2023-03-23T13:18:21;3.10;;;1.48;;
76437;SDS011;65273;43.198;0.118;2023-03-23T13:21:00;3.30;;;1.80;;
76437;SDS011;65273;43.198;0.118;2023-03-23T13:23:39;4.68;;;1.50;;
76437;SDS011;65273;43.198;0.118;2023-03-23T13:26:12;3.17;;;1.85;;
76437;SDS011;65273;43.198;0.118;2023-03-23T13:31:15;2.10;;;1.70;;
76437;SDS011;65273;43.198;0.118;2023-03-23T13:33:57;3.75;;;2.10;;
76437;SDS011;65273;43.198;0.118;2023-03-23T13:36:29;2.72;;;1.60;;
76437;SDS011;65273;43.198;0.118;2023-03-23T13:39:05;3.35;;;1.58;;
76437;SDS011;65273;43.198;0.118;2023-03-23T13:41:44;1.50;;;1.40;;
76437;SDS011;65273;43.198;0.118;2023-03-23T13:44:16;4.40;;;1.77;;
76437;SDS011;65273;43.198;0.118;2023-03-23T13:46:55;2.35;;;1.50;;
76437;SDS011;65273;43.198;0.118;2023-03-23T13:49:45;1.95;;;1.48;;
76437;SDS011;65273;43.198;0.118;2023-03-23T13:54:50;4.32;;;1.65;;
76437;SDS011;65273;43.198;0.118;2023-03-23T14:05:30;3.28;;;1.98;;
76437;SDS011;65273;43.198;0.118;2023-03-23T14:08:37;2.95;;;1.65;;
76437;SDS011;65273;43.198;0.118;2023-03-23T14:11:11;4.45;;;1.92;;
76437;SDS011;65273;43.198;0.118;2023-03-23T14:13:42;2.03;;;1.70;;
76437;SDS011;65273;43.198;0.118;2023-03-23T14:16:18;3.95;;;1.67;;
76437;SDS011;65273;43.198;0.118;2023-03-23T14:18:51;3.65;;;1.80;;
76437;SDS011;65273;43.198;0.118;2023-03-23T14:21:22;1.63;;;1.52;;
76437;SDS011;65273;43.198;0.118;2023-03-23T14:24:17;2.42;;;1.60;;
76437;SDS011;65273;43.198;0.118;2023-03-23T14:26:48;2.50;;;1.70;;
76437;SDS011;65273;43.198;0.118;2023-03-23T14:29:17;4.50;;;1.80;;
76437;SDS011;65273;43.198;0.118;2023-03-23T14:31:43;5.25;;;1.83;;
76437;SDS011;65273;43.198;0.118;2023-03-23T14:34:13;1.88;;;1.60;;
76437;SDS011;65273;43.198;0.118;2023-03-23T14:36:40;2.65;;;1.58;;
76437;SDS011;65273;43.198;0.118;2023-03-23T14:39:25;4.50;;;1.73;;
76437;SDS011;65273;43.198;0.118;2023-03-23T14:42:06;3.30;;;1.88;;
76437;SDS011;65273;43.198;0.118;2023-03-23T14:44:37;1.88;;;1.70;;
76437;SDS011;65273;43.198;0.118;2023-03-23T14:47:06;4.00;;;1.75;;
76437;SDS011;65273;43.198;0.118;2023-03-23T14:49:36;3.80;;;1.80;;
76437;SDS011;65273;43.198;0.118;2023-03-23T14:52:08;3.28;;;1.85;;
76437;SDS011;65273;43.198;0.118;2023-03-23T14:54:34;1.58;;;1.48;;
76437;SDS011;65273;43.198;0.118;2023-03-23T14:57:13;3.20;;;1.92;;
76437;SDS011;65273;43.198;0.118;2023-03-23T14:59:44;2.60;;;1.65;;
76437;SDS011;65273;43.198;0.118;2023-03-23T15:02:11;2.80;;;1.92;;
76437;SDS011;65273;43.198;0.118;2023-03-23T15:04:43;5.03;;;1.98;;
76437;SDS011;65273;43.198;0.118;2023-03-23T15:07:10;2.30;;;1.73;;
76437;SDS011;65273;43.198;0.118;2023-03-23T15:09:38;1.95;;;1.50;;
76437;SDS011;65273;43.198;0.118;2023-03-23T15:12:06;2.72;;;1.63;;
76437;SDS011;65273;43.198;0.118;2023-03-23T15:15:05;3.70;;;1.90;;
76437;SDS011;65273;43.198;0.118;2023-03-23T15:17:28;2.67;;;1.50;;
76437;SDS011;65273;43.198;0.118;2023-03-23T15:19:56;2.97;;;1.50;;
76437;SDS011;65273;43.198;0.118;2023-03-23T15:22:27;2.33;;;1.90;;
76437;SDS011;65273;43.198;0.118;2023-03-23T15:27:56;3.20;;;1.80;;
76437;SDS011;65273;43.198;0.118;2023-03-23T15:32:52;4.30;;;1.80;;
76437;SDS011;65273;43.198;0.118;2023-03-23T15:35:20;2.58;;;1.70;;
76437;SDS011;65273;43.198;0.118;2023-03-23T15:37:58;5.50;;;1.90;;
76437;SDS011;65273;43.198;0.118;2023-03-23T15:40:26;3.85;;;1.90;;
76437;SDS011;65273;43.198;0.118;2023-03-23T15:43:08;2.53;;;1.88;;
76437;SDS011;65273;43.198;0.118;2023-03-23T15:45:50;2.78;;;1.80;;
76437;SDS011;65273;43.198;0.118;2023-03-23T15:51:18;2.92;;;1.70;;
76437;SDS011;65273;43.198;0.118;2023-03-23T15:53:44;3.83;;;2.00;;
76437;SDS011;65273;43.198;0.118;2023-03-23T15:56:11;3.13;;;1.70;;
76437;SDS011;65273;43.198;0.118;2023-03-23T15:58:37;4.75;;;2.13;;
76437;SDS011;65273;43.198;0.118;2023-03-23T16:01:13;7.47;;;2.42;;
76437;SDS011;65273;43.198;0.118;2023-03-23T16:03:42;4.38;;;2.10;;
76437;SDS011;65273;43.198;0.118;2023-03-23T16:06:12;3.63;;;1.98;;
76437;SDS011;65273;43.198;0.118;2023-03-23T16:08:38;4.65;;;2.03;;
76437;SDS011;65273;43.198;0.118;2023-03-23T16:11:15;3.20;;;1.50;;
76437;SDS011;65273;43.198;0.118;2023-03-23T16:13:42;3.30;;;1.85;;
76437;SDS011;65273;43.198;0.118;2023-03-23T16:16:27;3.38;;;1.88;;
76437;SDS011;65273;43.198;0.118;2023-03-23T16:18:55;2.28;;;2.08;;
76437;SDS011;65273;43.198;0.118;2023-03-23T16:21:21;3.22;;;1.83;;
76437;SDS011;65273;43.198;0.118;2023-03-23T16:23:47;2.25;;;2.05;;
76437;SDS011;65273;43.198;0.118;2023-03-23T16:26:14;2.78;;;2.08;;
76437;SDS011;65273;43.198;0.118;2023-03-23T16:28:40;4.40;;;2.40;;
76437;SDS011;65273;43.198;0.118;2023-03-23T16:31:06;4.85;;;2.60;;
76437;SDS011;65273;43.198;0.118;2023-03-23T16:33:32;4.72;;;2.95;;
76437;SDS011;65273;43.198;0.118;2023-03-23T16:35:57;4.72;;;2.95;;
76437;SDS011;65273;43.198;0.118;2023-03-23T16:38:23;6.25;;;3.08;;
76437;SDS011;65273;43.198;0.118;2023-03-23T16:40:48;6.97;;;2.35;;
76437;SDS011;65273;43.198;0.118;2023-03-23T16:43:14;3.75;;;1.83;;
76437;SDS011;65273;43.198;0.118;2023-03-23T16:45:42;4.72;;;2.15;;
76437;SDS011;65273;43.198;0.118;2023-03-23T16:48:08;6.10;;;1.80;;
76437;SDS011;65273;43.198;0.118;2023-03-23T16:50:35;2.58;;;2.03;;
76437;SDS011;65273;43.198;0.118;2023-03-23T16:53:01;3.00;;;2.10;;
76437;SDS011;65273;43.198;0.118;2023-03-23T16:55:26;3.58;;;1.90;;
76437;SDS011;65273;43.198;0.118;2023-03-23T16:57:53;2.60;;;1.90;;
76437;SDS011;65273;43.198;0.118;2023-03-23T17:00:18;4.82;;;1.88;;
76437;SDS011;65273;43.198;0.118;2023-03-23T17:02:44;3.90;;;2.10;;
76437;SDS011;65273;43.198;0.118;2023-03-23T17:05:11;4.78;;;2.08;;
76437;SDS011;65273;43.198;0.118;2023-03-23T17:07:37;4.68;;;1.98;;